Time;durP1;ratioP1;P1;durP2;ratioP2;P2;SDS_P1;SDS_P2;PMS_P1;PMS_P2;Temp;Humidity;BMP_temperature;BMP_pressure;BME280_temperature;BME280_humidity;BME280_pressure;Samples;Min_cycle;Max_cycle;Signal;HPM_P1;HPM_P2
2022/09/11 00:00:58;;;;;;;6.90;6.22;;;;;;;29.44;55.11;100864.75;5074022;28;70982;-43
2022/09/11 00:03:30;;;;;;;5.97;5.57;;;;;;;29.52;55.83;100867.22;5075703;28;66384;-45
2022/09/11 00:06:09;;;;;;;9.63;5.88;;;;;;;29.66;53.18;100878.88;5077191;28;70671;-44
2022/09/11 00:08:42;;;;;;;8.82;8.05;;;;;;;29.72;54.82;100881.56;5075245;28;67204;-45
2022/09/11 00:11:18;;;;;;;11.70;10.30;;;;;;;29.71;56.17;100866.38;5075661;28;70539;-44
2022/09/11 00:13:53;;;;;;;11.40;10.30;;;;;;;29.38;57.66;100807.81;5074415;27;67021;-44
2022/09/11 00:16:29;;;;;;;14.77;10.50;;;;;;;29.93;59.12;100912.91;5079405;27;70041;-45
2022/09/11 00:19:11;;;;;;;12.30;10.77;;;;;;;29.46;59.40;100814.03;5075056;27;66533;-48
2022/09/11 00:21:44;;;;;;;14.65;10.60;;;;;;;30.00;59.80;100899.34;5065698;28;70669;-43
2022/09/11 00:24:16;;;;;;;13.10;11.05;;;;;;;30.06;60.35;100895.78;5078234;28;66110;-44
2022/09/11 00:26:49;;;;;;;12.40;10.82;;;;;;;30.10;61.13;100891.63;5068198;27;71020;-44
2022/09/11 00:29:21;;;;;;;12.93;10.20;;;;;;;30.14;60.99;100890.13;5078449;28;66429;-44
2022/09/11 00:31:54;;;;;;;11.07;10.27;;;;;;;30.09;61.30;100879.16;5071889;28;70902;-44
2022/09/11 00:34:27;;;;;;;11.27;10.18;;;;;;;30.07;61.56;100870.41;5081466;27;66350;-44
2022/09/11 00:37:00;;;;;;;10.85;9.90;;;;;;;30.24;62.18;100893.25;5072429;28;70571;-44
2022/09/11 00:39:32;;;;;;;10.75;9.85;;;;;;;30.26;62.33;100896.56;5077033;27;66189;-46
2022/09/11 00:42:05;;;;;;;10.10;9.20;;;;;;;30.21;62.67;100887.41;5072577;28;70721;-43
2022/09/11 00:44:37;;;;;;;10.95;9.98;;;;;;;30.33;62.99;100906.53;5081620;28;66363;-43
2022/09/11 00:47:17;;;;;;;10.20;9.35;;;;;;;30.32;62.43;100910.28;5068933;28;70271;-45
2022/09/11 00:49:54;;;;;;;11.00;9.93;;;;;;;30.29;63.19;100895.31;5064709;28;66302;-45
2022/09/11 00:52:33;;;;;;;10.45;9.63;;;;;;;30.42;62.78;100913.34;5061179;28;70098;-44
2022/09/11 00:55:11;;;;;;;10.13;9.23;;;;;;;29.98;63.19;100839.25;5063468;28;66702;-45
2022/09/11 00:57:57;;;;;;;9.82;8.93;;;;;;;30.44;62.97;100913.97;5073447;28;69823;-43
2022/09/11 01:00:30;;;;;;;9.43;8.65;;;;;;;30.49;63.51;100911.44;5076157;28;66238;-43
2022/09/11 01:03:03;;;;;;;9.15;8.45;;;;;;;30.53;63.33;100917.25;5074918;28;70846;-45
2022/09/11 01:05:39;;;;;;;8.98;7.97;;;;;;;30.50;63.50;100904.97;5079288;27;66785;-45
2022/09/11 01:08:13;;;;;;;8.70;7.90;;;;;;;30.56;63.80;100923.03;5077522;28;70546;-43
2022/09/11 01:11:15;;;;;;;11.30;8.40;;;;;;;30.46;63.43;100926.22;5074047;28;66138;-45
2022/09/11 01:14:04;;;;;;;9.13;8.20;;;;;;;30.05;63.87;100853.56;5078678;28;69496;-45
2022/09/11 01:17:01;;;;;;;8.73;7.55;;;;;;;30.63;63.58;100925.72;5075291;28;67044;-44
2022/09/11 01:19:52;;;;;;;8.85;8.05;;;;;;;30.65;64.06;100935.28;5080867;28;70456;-45
2022/09/11 01:22:29;;;;;;;7.00;6.50;;;;;;;30.67;64.02;100929.66;5075768;28;66873;-44
2022/09/11 01:25:20;;;;;;;8.32;7.60;;;;;;;30.57;63.72;100935.56;5074195;28;70106;-44
2022/09/11 01:27:59;;;;;;;7.55;6.75;;;;;;;30.32;63.54;100875.13;5079586;28;66534;-45
2022/09/11 01:30:45;;;;;;;6.65;6.25;;;;;;;30.22;64.22;100857.44;5077059;28;71334;-44
2022/09/11 01:33:42;;;;;;;9.18;6.45;;;;;;;30.70;64.08;100934.63;5076544;27;66782;-44
2022/09/11 01:36:25;;;;;;;7.75;7.22;;;;;;;30.79;64.39;100927.09;5074343;28;70797;-44
2022/09/11 01:39:03;;;;;;;6.97;6.35;;;;;;;30.29;64.24;100841.19;5076180;28;65818;-44
2022/09/11 01:42:00;;;;;;;7.38;6.80;;;;;;;30.75;64.58;100933.97;5077359;28;71025;-44
2022/09/11 01:45:01;;;;;;;7.07;6.55;;;;;;;30.35;64.28;100853.03;5055662;28;66862;-43
2022/09/11 01:47:35;;;;;;;6.57;6.07;;;;;;;30.49;64.04;100868.13;5079685;28;70299;-46
2022/09/11 01:50:14;;;;;;;6.45;5.95;;;;;;;30.53;64.50;100863.94;5076332;28;66905;-44
2022/09/11 01:53:00;;;;;;;6.68;6.07;;;;;;;30.90;64.48;100929.13;5075887;28;70911;-45
2022/09/11 01:55:57;;;;;;;6.63;6.13;;;;;;;30.62;64.06;100868.06;5068328;27;67010;-44
2022/09/11 01:58:35;;;;;;;6.30;5.80;;;;;;;30.47;64.60;100832.31;5087515;27;70783;-44
2022/09/11 02:01:18;;;;;;;6.55;6.05;;;;;;;30.16;64.30;100777.13;5061031;28;65260;-44
2022/09/11 02:04:16;;;;;;;6.07;5.57;;;;;;;31.07;64.32;100922.13;5062200;28;70669;-48
2022/09/11 02:07:01;;;;;;;6.28;5.75;;;;;;;30.98;64.66;100893.66;5061652;28;67158;-44
2022/09/11 02:10:04;;;;;;;6.07;5.68;;;;;;;30.61;64.58;100828.47;5077487;28;71438;-45
2022/09/11 02:12:42;;;;;;;;;;;;;;;30.77;66.06;100902.09;5059994;28;66366;-44
2022/09/11 02:15:16;;;;;;;6.10;5.55;;;;;;;31.13;64.37;100904.16;5066076;28;70083;-44
2022/09/11 02:18:15;;;;;;;5.82;5.43;;;;;;;30.70;64.57;100832.59;5077097;28;66650;-44
2022/09/11 02:20:50;;;;;;;5.45;5.05;;;;;;;31.22;64.77;100915.53;5088762;27;70696;-44
2022/09/11 02:23:22;;;;;;;6.07;5.55;;;;;;;31.26;64.79;100905.88;5072639;28;66907;-44
2022/09/11 02:25:55;;;;;;;5.70;5.00;;;;;;;31.29;64.99;100906.28;5077212;28;71074;-44
2022/09/11 02:28:28;;;;;;;4.88;4.57;;;;;;;31.28;64.62;100898.38;5075805;27;65788;-44
2022/09/11 02:31:02;;;;;;;4.47;4.18;;;;;;;31.30;64.76;100902.53;5072754;28;70683;-44
2022/09/11 02:33:36;;;;;;;5.00;4.60;;;;;;;31.37;64.88;100903.34;5094067;27;66765;-44
2022/09/11 02:36:28;;;;;;;4.70;4.40;;;;;;;31.29;64.81;100889.22;5057096;28;71201;-43
2022/09/11 02:39:23;;;;;;;4.88;4.57;;;;;;;31.26;65.25;100887.78;5075375;27;66532;-44
2022/09/11 02:42:46;;;;;;;4.80;4.50;;;;;;;31.37;64.98;100883.50;5072445;28;70830;-45
2022/09/11 02:45:21;;;;;;;;;;;;;;;31.08;66.79;100882.28;5019077;28;66924;-45
2022/09/11 02:48:05;;;;;;;4.28;3.97;;;;;;;30.93;65.26;100809.50;5032506;28;70532;-45
2022/09/11 02:50:52;;;;;;;3.88;3.58;;;;;;;31.31;64.89;100854.56;5052225;28;66840;-46
2022/09/11 02:53:41;;;;;;;3.97;3.67;;;;;;;31.56;64.51;100879.75;5077182;27;70650;-45
2022/09/11 02:56:21;;;;;;;5.60;4.22;;;;;;;31.05;66.24;100796.06;5075223;27;66815;-47
2022/09/11 02:59:06;;;;;;;4.50;4.20;;;;;;;30.86;67.48;100787.88;5071538;27;70029;-43
2022/09/11 03:01:53;;;;;;;4.15;3.85;;;;;;;31.17;67.62;100848.44;5074178;28;66271;-47
2022/09/11 03:04:29;;;;;;;4.40;4.10;;;;;;;31.27;68.36;100864.22;5058479;28;69900;-43
2022/09/11 03:07:02;;;;;;;4.70;3.92;;;;;;;31.24;68.20;100864.66;5070977;27;67055;-44
2022/09/11 03:09:34;;;;;;;4.20;3.90;;;;;;;31.24;68.63;100861.94;5076466;28;70105;-43
2022/09/11 03:12:13;;;;;;;4.28;3.92;;;;;;;31.08;68.91;100844.38;5077228;28;67037;-43
2022/09/11 03:14:51;;;;;;;6.30;3.40;;;;;;;31.20;68.66;100864.25;5077081;28;70783;-44
2022/09/11 03:17:24;;;;;;;5.03;4.00;;;;;;;31.26;68.56;100867.94;5089797;27;66693;-43
2022/09/11 03:19:57;;;;;;;3.72;3.42;;;;;;;31.27;68.64;100864.22;5073129;28;70590;-45
2022/09/11 03:22:30;;;;;;;3.88;3.50;;;;;;;31.29;68.45;100870.25;5077909;28;66335;-44
2022/09/11 03:25:03;;;;;;;4.40;3.92;;;;;;;31.28;68.75;100860.44;5080297;28;70917;-43
2022/09/11 03:27:38;;;;;;;4.18;3.88;;;;;;;31.17;68.38;100837.59;5078555;28;67049;-44
2022/09/11 03:30:11;;;;;;;3.90;3.60;;;;;;;31.25;68.64;100844.63;5077991;28;70193;-43
2022/09/11 03:32:44;;;;;;;4.15;3.85;;;;;;;31.41;67.91;100860.34;5079040;28;67039;-45
2022/09/11 03:35:16;;;;;;;3.83;3.53;;;;;;;31.52;66.77;100856.88;5074800;28;69781;-44
2022/09/11 03:37:49;;;;;;;3.03;2.83;;;;;;;31.57;66.10;100840.78;5043605;28;67257;-44
2022/09/11 03:40:22;;;;;;;3.05;2.63;;;;;;;31.73;66.14;100854.75;5074337;28;70105;-44
2022/09/11 03:42:54;;;;;;;3.10;2.90;;;;;;;31.49;65.60;100811.25;5073365;28;67092;-43
2022/09/11 03:45:31;;;;;;;3.00;2.80;;;;;;;31.75;65.78;100839.09;5070790;28;70198;-43
2022/09/11 03:48:05;;;;;;;3.40;3.10;;;;;;;31.90;65.63;100847.69;5076857;28;66759;-44
2022/09/11 03:50:37;;;;;;;3.17;2.97;;;;;;;31.96;65.24;100846.78;5076343;28;70828;-43
2022/09/11 03:53:11;;;;;;;2.65;2.45;;;;;;;32.03;65.12;100838.56;5074090;27;67073;-43
2022/09/11 03:55:50;;;;;;;2.80;2.60;;;;;;;31.97;64.88;100824.03;5075065;27;70010;-44
2022/09/11 03:58:23;;;;;;;3.05;2.85;;;;;;;32.12;65.08;100844.50;5079646;28;66150;-44
2022/09/11 04:00:55;;;;;;;3.65;3.05;;;;;;;32.15;64.79;100838.59;5075288;28;70927;-43
2022/09/11 04:03:30;;;;;;;2.58;2.38;;;;;;;32.16;65.00;100824.00;5080230;28;66498;-44
2022/09/11 04:06:02;;;;;;;4.10;2.35;;;;;;;32.24;64.98;100823.66;5093149;27;69894;-45
2022/09/11 04:08:38;;;;;;;2.45;2.25;;;;;;;32.25;64.72;100820.69;5072777;28;66998;-44
2022/09/11 04:11:13;;;;;;;2.95;2.55;;;;;;;32.31;64.91;100821.66;5077626;27;70915;-44
2022/09/11 04:13:46;;;;;;;3.08;2.88;;;;;;;32.33;64.88;100807.88;5079966;28;66831;-44
2022/09/11 04:16:20;;;;;;;2.70;2.55;;;;;;;32.21;65.05;100797.81;5077948;28;70679;-43
2022/09/11 04:18:55;;;;;;;2.83;2.58;;;;;;;32.36;64.38;100819.09;5075787;28;66169;-44
2022/09/11 04:21:29;;;;;;;3.28;2.97;;;;;;;32.26;64.77;100797.09;5077298;28;69898;-44
2022/09/11 04:24:01;;;;;;;4.38;2.72;;;;;;;32.42;64.42;100818.16;5062298;28;67083;-45
2022/09/11 04:26:35;;;;;;;3.13;2.83;;;;;;;32.44;64.33;100812.50;5074019;28;70494;-45
2022/09/11 04:29:21;;;;;;;4.18;2.75;;;;;;;32.46;64.42;100805.00;5071532;28;66076;-44
2022/09/11 04:31:55;;;;;;;2.88;2.50;;;;;;;32.26;64.45;100761.81;5075552;27;70274;-47
2022/09/11 04:34:31;;;;;;;2.95;2.72;;;;;;;32.37;64.47;100771.03;5076340;28;66869;-43
2022/09/11 04:37:05;;;;;;;3.03;2.60;;;;;;;32.40;64.29;100776.84;5071404;28;70892;-44
2022/09/11 04:39:38;;;;;;;3.83;3.53;;;;;;;32.54;64.36;100792.94;5080398;28;67044;-44
2022/09/11 04:42:11;;;;;;;4.57;4.07;;;;;;;32.54;64.47;100793.78;5071958;28;70779;-43
2022/09/11 04:44:48;;;;;;;5.65;3.78;;;;;;;32.57;64.01;100777.03;5079521;28;66512;-46
2022/09/11 04:47:21;;;;;;;4.53;3.50;;;;;;;32.58;64.08;100767.00;5079787;28;70801;-44
2022/09/11 04:49:54;;;;;;;7.22;3.30;;;;;;;32.57;64.11;100762.59;5077837;28;67528;-44
2022/09/11 04:52:26;;;;;;;4.60;3.35;;;;;;;32.64;63.80;100769.59;5075743;28;70621;-44
2022/09/11 04:55:00;;;;;;;10.48;3.67;;;;;;;32.66;63.76;100762.03;5072738;28;66923;-44
2022/09/11 04:57:33;;;;;;;7.00;3.17;;;;;;;32.67;63.80;100763.69;5075236;28;70844;-45
2022/09/11 05:00:07;;;;;;;10.32;3.03;;;;;;;32.69;63.35;100752.59;5081106;28;65834;-45
2022/09/11 05:02:42;;;;;;;8.98;3.50;;;;;;;32.68;63.29;100737.34;5079586;27;70833;-45
2022/09/11 05:05:14;;;;;;;12.93;3.70;;;;;;;32.75;63.26;100748.09;5066951;28;67394;-44
2022/09/11 05:07:49;;;;;;;6.40;3.17;;;;;;;32.76;63.25;100747.84;5071011;28;70921;-44
2022/09/11 05:10:22;;;;;;;7.15;3.38;;;;;;;32.78;63.38;100734.03;5080051;28;66694;-44
2022/09/11 05:12:56;;;;;;;9.35;3.70;;;;;;;32.78;62.85;100734.88;5081634;27;70097;-44
2022/09/11 05:15:32;;;;;;;11.27;3.30;;;;;;;32.83;62.95;100726.03;5065992;28;66893;-46
2022/09/11 05:18:05;;;;;;;6.40;2.65;;;;;;;32.84;63.00;100717.63;5083089;27;69951;-45
2022/09/11 05:20:39;;;;;;;8.15;3.05;;;;;;;32.87;62.92;100710.88;5074220;28;66753;-45
2022/09/11 05:23:11;;;;;;;6.15;3.00;;;;;;;32.88;62.96;100707.94;5088720;27;70844;-44
2022/09/11 05:25:46;;;;;;;15.88;3.13;;;;;;;32.90;62.78;100705.81;5078108;28;66763;-45
2022/09/11 05:28:19;;;;;;;9.63;2.80;;;;;;;32.87;62.82;100695.41;5080468;28;70685;-44
2022/09/11 05:30:53;;;;;;;4.43;2.40;;;;;;;32.93;62.51;100699.91;5080106;28;66420;-45
2022/09/11 05:33:27;;;;;;;4.68;2.45;;;;;;;32.94;62.23;100698.84;5077673;28;70267;-45
2022/09/11 05:36:05;;;;;;;2.92;2.47;;;;;;;32.98;62.48;100690.19;5078345;28;67332;-43
2022/09/11 05:38:38;;;;;;;2.85;2.55;;;;;;;32.99;62.30;100680.97;5070630;28;70337;-44
2022/09/11 05:41:12;;;;;;;10.55;3.33;;;;;;;32.98;62.14;100673.91;5077947;28;66402;-44
2022/09/11 05:43:45;;;;;;;4.43;3.22;;;;;;;33.02;62.20;100675.13;5077537;28;70456;-44
2022/09/11 05:46:19;;;;;;;4.10;2.40;;;;;;;32.39;62.82;100616.91;5075548;28;66292;-45
2022/09/11 05:48:58;;;;;;;4.30;2.08;;;;;;;32.55;63.81;100664.28;5078270;28;70051;-44
2022/09/11 05:51:34;;;;;;;4.97;2.50;;;;;;;32.42;64.09;100657.16;5080010;28;66995;-45
2022/09/11 05:54:08;;;;;;;4.53;2.20;;;;;;;32.35;64.26;100643.72;5075511;28;70657;-43
2022/09/11 05:56:41;;;;;;;5.22;2.00;;;;;;;32.37;64.60;100640.75;5062256;28;66687;-43
2022/09/11 05:59:20;;;;;;;8.88;1.83;;;;;;;32.35;64.60;100630.13;5056733;28;70532;-43
2022/09/11 06:01:53;;;;;;;2.17;1.58;;;;;;;32.36;64.86;100634.50;5076815;27;66165;-43
2022/09/11 06:04:38;;;;;;;2.75;2.10;;;;;;;32.30;64.88;100608.31;5057386;28;71237;-44
2022/09/11 06:07:11;;;;;;;1.83;1.58;;;;;;;32.43;64.31;100613.50;5078156;28;66387;-42
2022/09/11 06:09:47;;;;;;;2.20;1.55;;;;;;;32.41;64.45;100604.75;5075566;28;70559;-42
2022/09/11 06:12:20;;;;;;;2.40;1.80;;;;;;;32.46;64.39;100590.50;5067438;27;66174;-44
2022/09/11 06:14:53;;;;;;;1.90;1.30;;;;;;;32.49;64.42;100601.72;5053534;28;70272;-42
2022/09/11 06:17:27;;;;;;;2.10;1.23;;;;;;;32.49;64.55;100595.47;5063993;28;66133;-42
2022/09/11 06:20:00;;;;;;;2.88;1.45;;;;;;;32.49;64.50;100585.41;5067805;28;70485;-43
2022/09/11 06:22:36;;;;;;;4.15;1.30;;;;;;;31.70;64.28;100440.31;5065856;28;67085;-43
2022/09/11 06:25:08;;;;;;;1.80;1.10;;;;;;;32.46;64.41;100550.59;5067197;28;71054;-42
2022/09/11 06:27:41;;;;;;;4.88;1.23;;;;;;;32.55;64.40;100558.38;5066014;28;66756;-42
2022/09/11 06:30:13;;;;;;;1.10;0.90;;;;;;;32.60;64.45;100553.06;5072186;28;71101;-41
2022/09/11 06:32:50;;;;;;;1.35;1.25;;;;;;;32.64;64.39;100551.50;5066743;28;66322;-44
2022/09/11 06:35:23;;;;;;;1.40;0.93;;;;;;;32.66;64.08;100546.66;5064985;28;70000;-43
2022/09/11 06:37:55;;;;;;;2.95;1.40;;;;;;;32.70;64.05;100547.81;5074251;28;66872;-43
2022/09/11 06:40:29;;;;;;;1.30;1.20;;;;;;;32.71;64.10;100541.34;5075528;28;70834;-43
2022/09/11 06:43:02;;;;;;;1.35;1.10;;;;;;;32.77;63.99;100553.13;5073610;28;66933;-43
2022/09/11 06:45:34;;;;;;;1.85;1.30;;;;;;;32.76;63.72;100533.28;5081422;27;71243;-45
2022/09/11 06:48:07;;;;;;;1.52;0.80;;;;;;;32.70;63.88;100509.78;5061088;28;66320;-46
2022/09/11 06:50:40;;;;;;;1.58;0.90;;;;;;;32.79;63.87;100519.22;5072321;28;70178;-44
2022/09/11 06:53:14;;;;;;;1.10;0.80;;;;;;;32.81;63.74;100503.50;5069260;28;66066;-44
2022/09/11 06:55:59;;;;;;;1.20;0.82;;;;;;;32.46;63.70;100444.72;5076933;28;70984;-45
2022/09/11 06:58:33;;;;;;;1.98;0.90;;;;;;;32.50;63.70;100445.06;5080408;28;66482;-45
2022/09/11 07:01:12;;;;;;;1.13;0.77;;;;;;;32.47;63.71;100438.22;5077069;28;69408;-45
2022/09/11 07:03:49;;;;;;;1.35;0.90;;;;;;;32.38;63.96;100423.34;5073353;28;66899;-43
2022/09/11 07:06:27;;;;;;;3.15;1.00;;;;;;;32.41;64.24;100414.72;5071069;28;70932;-45
2022/09/11 07:09:01;;;;;;;1.70;0.90;;;;;;;32.89;63.92;100494.97;5072327;28;66413;-46
2022/09/11 07:11:45;;;;;;;1.05;0.95;;;;;;;32.87;64.05;100502.50;5066868;28;70734;-44
2022/09/11 07:14:20;;;;;;;0.90;0.60;;;;;;;32.88;63.99;100506.09;5060659;28;66728;-44
2022/09/11 07:16:57;;;;;;;1.00;0.88;;;;;;;32.86;64.09;100513.63;5085452;27;70244;-45
2022/09/11 07:19:29;;;;;;;1.20;0.90;;;;;;;32.86;63.96;100505.50;5068040;28;66176;-45
2022/09/11 07:22:02;;;;;;;0.80;0.70;;;;;;;32.84;64.08;100488.59;5077058;28;71032;-44
2022/09/11 07:24:36;;;;;;;0.73;0.70;;;;;;;32.87;64.19;100475.34;5075852;28;66778;-45
2022/09/11 07:27:12;;;;;;;2.38;0.75;;;;;;;32.83;64.33;100455.19;5074636;28;71326;-44
2022/09/11 07:29:45;;;;;;;1.27;0.80;;;;;;;32.89;64.47;100465.06;5056414;28;67190;-43
2022/09/11 07:32:17;;;;;;;1.27;0.73;;;;;;;32.89;64.65;100475.13;5079304;27;70650;-42
2022/09/11 07:34:50;;;;;;;0.93;0.68;;;;;;;32.78;64.71;100463.25;5082181;28;66967;-42
2022/09/11 07:37:22;;;;;;;0.88;0.70;;;;;;;32.88;64.77;100471.59;5073165;27;70772;-42
2022/09/11 07:39:55;;;;;;;1.00;0.70;;;;;;;32.51;64.89;100435.84;5075829;28;66489;-44
2022/09/11 07:42:32;;;;;;;1.13;0.63;;;;;;;32.79;64.83;100477.63;5079355;28;70804;-43
2022/09/11 07:45:05;;;;;;;0.95;0.65;;;;;;;32.85;65.20;100485.66;5073850;28;66405;-42
2022/09/11 07:47:38;;;;;;;1.00;0.70;;;;;;;32.73;64.98;100471.28;5069755;28;70349;-44
2022/09/11 07:50:11;;;;;;;0.98;0.70;;;;;;;32.83;65.34;100482.34;5079635;28;66394;-43
2022/09/11 07:52:44;;;;;;;1.10;0.68;;;;;;;32.81;65.40;100489.91;5079285;28;70611;-44
2022/09/11 07:55:17;;;;;;;1.02;0.70;;;;;;;32.78;65.67;100506.69;5056980;28;66678;-45
2022/09/11 07:57:50;;;;;;;5.50;0.85;;;;;;;33.01;64.78;100530.25;5074956;28;70679;-45
2022/09/11 08:00:26;;;;;;;2.05;0.70;;;;;;;33.19;64.69;100518.34;5074062;28;66927;-45
2022/09/11 08:03:08;;;;;;;2.35;0.90;;;;;;;33.30;64.05;100509.31;5072267;27;69361;-44
2022/09/11 08:05:40;;;;;;;3.05;1.38;;;;;;;33.32;63.93;100512.63;5072401;28;66530;-43
2022/09/11 08:08:15;;;;;;;3.40;1.10;;;;;;;33.34;63.85;100507.72;5078698;28;71290;-44
2022/09/11 08:10:47;;;;;;;1.25;1.00;;;;;;;33.50;63.64;100521.59;5078052;28;66478;-44
2022/09/11 08:13:20;;;;;;;2.78;1.30;;;;;;;33.50;63.59;100505.28;5078019;28;70245;-46
2022/09/11 08:15:52;;;;;;;1.80;1.00;;;;;;;33.58;63.35;100521.22;5062618;28;66916;-44
2022/09/11 08:18:25;;;;;;;4.03;1.13;;;;;;;33.57;63.30;100511.41;5071398;28;70921;-44
2022/09/11 08:21:08;;;;;;;2.53;1.20;;;;;;;33.59;63.87;100544.63;5057742;28;66677;-45
2022/09/11 08:23:44;;;;;;;1.20;1.10;;;;;;;33.65;63.33;100521.88;5077774;28;70958;-45
2022/09/11 08:26:24;;;;;;;1.83;1.20;;;;;;;33.43;63.51;100491.00;5073735;28;65812;-45
2022/09/11 08:28:59;;;;;;;1.95;1.20;;;;;;;33.66;63.16;100531.69;5071695;28;70210;-44
2022/09/11 08:31:35;;;;;;;3.22;1.20;;;;;;;33.62;63.52;100525.06;5071743;28;66293;-43
2022/09/11 08:34:11;;;;;;;2.33;1.40;;;;;;;33.68;63.33;100520.53;5072407;28;70425;-46
2022/09/11 08:36:44;;;;;;;3.97;1.67;;;;;;;33.61;63.23;100504.41;5064974;28;67212;-45
2022/09/11 08:39:17;;;;;;;1.63;1.30;;;;;;;33.68;63.61;100505.03;5057689;28;70623;-44
2022/09/11 08:42:02;;;;;;;2.63;1.50;;;;;;;33.67;63.32;100503.41;5075407;27;66323;-44
2022/09/11 08:44:48;;;;;;;2.60;1.45;;;;;;;33.67;63.23;100489.81;5059116;28;70916;-44
2022/09/11 08:47:34;;;;;;;3.65;1.90;;;;;;;33.65;63.34;100497.38;5074484;28;66301;-45
2022/09/11 08:50:18;;;;;;;3.08;1.58;;;;;;;33.66;63.14;100507.22;5073946;28;71029;-43
2022/09/11 08:52:54;;;;;;;3.28;2.10;;;;;;;33.38;62.89;100468.13;5073264;28;67396;-43
2022/09/11 08:55:50;;;;;;;2.55;2.35;;;;;;;33.60;62.78;100516.38;5077940;28;70842;-46
2022/09/11 08:58:28;;;;;;;2.65;1.88;;;;;;;33.21;62.85;100455.59;5072905;28;66307;-43
2022/09/11 09:01:11;;;;;;;2.90;1.90;;;;;;;33.61;62.85;100526.16;5071713;28;69980;-43
2022/09/11 09:03:43;;;;;;;2.30;2.10;;;;;;;33.62;62.84;100522.38;5078261;28;66671;-45
2022/09/11 09:06:34;;;;;;;2.78;2.20;;;;;;;33.53;62.70;100523.84;5072614;28;70866;-45
2022/09/11 09:09:25;;;;;;;3.60;2.33;;;;;;;33.52;62.80;100517.59;5070973;28;65951;-44
2022/09/11 09:12:48;;;;;;;4.15;2.90;;;;;;;33.47;62.83;100513.94;5072139;28;69668;-45
2022/09/11 09:15:49;;;;;;;4.30;2.53;;;;;;;32.96;62.85;100417.91;5057602;28;65765;-44
2022/09/11 09:18:57;;;;;;;3.10;2.80;;;;;;;33.15;62.77;100449.25;5076933;28;71329;-43
2022/09/11 09:21:44;;;;;;;7.72;3.50;;;;;;;33.53;62.97;100496.66;5056073;28;65730;-44
2022/09/11 09:24:19;;;;;;;3.05;2.53;;;;;;;33.44;62.76;100470.94;5075850;28;70496;-44
2022/09/11 09:26:56;;;;;;;3.50;2.80;;;;;;;33.51;62.73;100483.25;5055596;28;66373;-43
2022/09/11 09:29:35;;;;;;;4.25;2.75;;;;;;;33.51;62.59;100482.44;5069077;27;71111;-43
2022/09/11 09:32:31;;;;;;;6.47;2.90;;;;;;;32.93;62.86;100403.75;5073467;28;66600;-45
2022/09/11 09:35:14;;;;;;;4.00;3.58;;;;;;;33.02;62.46;100409.63;5074819;28;69715;-44
2022/09/11 09:37:47;;;;;;;5.00;2.75;;;;;;;33.48;62.56;100485.66;5075012;28;66197;-43
2022/09/11 09:40:25;;;;;;;3.45;2.97;;;;;;;33.44;62.68;100468.22;5060701;27;70488;-44
2022/09/11 09:43:09;;;;;;;4.25;2.80;;;;;;;33.42;63.12;100481.22;5073133;28;66900;-44
2022/09/11 09:46:03;;;;;;;4.07;2.97;;;;;;;33.36;62.66;100481.13;5073616;28;71012;-45
2022/09/11 09:48:38;;;;;;;2.92;2.63;;;;;;;33.37;63.16;100485.50;5071004;28;66928;-43
2022/09/11 09:51:13;;;;;;;3.17;2.85;;;;;;;33.37;62.77;100496.38;5063151;28;70880;-44
2022/09/11 09:53:52;;;;;;;6.13;3.05;;;;;;;33.40;63.25;100502.38;5060270;28;66239;-43
2022/09/11 09:56:25;;;;;;;8.30;3.00;;;;;;;33.38;63.24;100505.38;5084587;27;70359;-44
2022/09/11 09:59:08;;;;;;;4.55;2.53;;;;;;;33.33;63.44;100499.84;5064369;28;66764;-43
2022/09/11 10:01:46;;;;;;;3.13;2.50;;;;;;;32.92;63.06;100433.88;5079056;27;70324;-45
2022/09/11 10:04:25;;;;;;;4.55;2.58;;;;;;;33.34;63.14;100518.59;5071924;28;66460;-44
2022/09/11 10:07:13;;;;;;;4.28;2.70;;;;;;;33.27;63.59;100517.13;5072243;28;69970;-45
2022/09/11 10:09:50;;;;;;;7.78;2.20;;;;;;;33.23;63.39;100511.34;5072503;28;66917;-46
2022/09/11 10:12:26;;;;;;;2.70;2.50;;;;;;;33.29;63.70;100534.84;5072972;28;70695;-43
2022/09/11 10:15:01;;;;;;;2.35;2.13;;;;;;;33.24;63.40;100545.63;5049453;28;66623;-44
2022/09/11 10:17:37;;;;;;;2.45;2.25;;;;;;;32.83;63.51;100487.78;5076394;27;70680;-43
2022/09/11 10:20:21;;;;;;;5.03;2.08;;;;;;;33.21;63.81;100573.31;5070038;28;66988;-45
2022/09/11 10:22:55;;;;;;;3.55;2.47;;;;;;;33.25;63.49;100577.19;5070365;27;70088;-44
2022/09/11 10:25:28;;;;;;;2.55;2.05;;;;;;;33.23;63.34;100592.06;5070972;28;66945;-45
2022/09/11 10:28:07;;;;;;;4.70;2.58;;;;;;;33.22;63.65;100604.84;5078843;27;70518;-44
2022/09/11 10:30:53;;;;;;;3.58;3.10;;;;;;;33.02;63.39;100591.69;5068711;28;66668;-45
2022/09/11 10:33:51;;;;;;;9.07;5.78;;;;;;;33.19;63.67;100627.09;5078637;28;70013;-46
2022/09/11 10:36:27;;;;;;;7.13;4.43;;;;;;;33.07;63.67;100623.56;5065856;28;66152;-45
2022/09/11 10:39:01;;;;;;;4.03;3.72;;;;;;;33.18;63.71;100640.91;5075176;27;72152;-44
2022/09/11 10:41:35;;;;;;;4.22;3.53;;;;;;;32.98;63.75;100612.22;5072104;28;67012;-45
2022/09/11 10:44:14;;;;;;;4.57;4.07;;;;;;;33.15;64.00;100650.34;5076260;28;70767;-45
2022/09/11 10:47:25;;;;;;;4.38;3.97;;;;;;;32.23;64.33;100509.88;5077724;28;66988;-43
2022/09/11 10:50:16;;;;;;;3.90;3.60;;;;;;;33.01;64.07;100654.41;5073962;28;71035;-44
2022/09/11 10:52:57;;;;;;;3.80;3.50;;;;;;;33.07;63.75;100656.16;5077698;27;66943;-43
2022/09/11 10:56:04;;;;;;;3.57;3.27;;;;;;;33.02;64.13;100664.25;5077461;28;70423;-43
2022/09/11 10:58:41;;;;;;;4.00;2.95;;;;;;;33.02;64.09;100653.38;5071989;28;66775;-43
2022/09/11 11:01:13;;;;;;;4.93;3.08;;;;;;;32.99;64.09;100653.78;5060396;28;70703;-44
2022/09/11 11:03:46;;;;;;;5.25;3.42;;;;;;;32.98;63.98;100635.84;5076006;27;67154;-43
2022/09/11 11:06:26;;;;;;;3.03;2.83;;;;;;;33.05;64.27;100647.47;5068603;27;70342;-44
2022/09/11 11:09:07;;;;;;;3.10;2.80;;;;;;;33.04;64.34;100643.06;5068406;28;66587;-44
2022/09/11 11:12:05;;;;;;;3.42;2.65;;;;;;;32.91;64.75;100642.25;5070702;28;69697;-44
2022/09/11 11:15:12;;;;;;;3.38;3.08;;;;;;;32.54;64.37;100602.88;5071673;28;66841;-44
2022/09/11 11:18:02;;;;;;;3.13;2.83;;;;;;;32.99;64.50;100664.66;5075399;28;70388;-44
2022/09/11 11:20:59;;;;;;;2.55;2.35;;;;;;;32.96;65.26;100670.59;5066234;28;67957;-43
2022/09/11 11:23:31;;;;;;;5.38;2.60;;;;;;;32.96;64.71;100667.88;5065322;28;71167;-44
2022/09/11 11:26:42;;;;;;;2.70;2.33;;;;;;;32.87;64.79;100668.22;5077305;28;67129;-44
2022/09/11 11:29:19;;;;;;;2.50;2.30;;;;;;;32.93;64.39;100666.44;5069804;28;69639;-44
2022/09/11 11:32:19;;;;;;;2.55;2.10;;;;;;;32.84;65.05;100676.88;5063756;28;66924;-43
2022/09/11 11:35:11;;;;;;;2.40;2.20;;;;;;;32.92;64.82;100670.25;5066113;28;69963;-43
2022/09/11 11:37:48;;;;;;;2.35;2.15;;;;;;;32.63;64.66;100636.75;5072523;28;66233;-43
2022/09/11 11:40:41;;;;;;;2.42;2.13;;;;;;;32.82;65.25;100692.59;5063990;28;71037;-44
2022/09/11 11:43:16;;;;;;;2.97;2.10;;;;;;;32.89;64.58;100681.59;5072436;28;66889;-44
2022/09/11 11:46:03;;;;;;;2.08;1.70;;;;;;;32.89;64.60;100697.91;5070329;27;70103;-43
2022/09/11 11:48:51;;;;;;;2.70;2.50;;;;;;;32.87;64.62;100695.41;5077861;28;67017;-45
2022/09/11 11:51:26;;;;;;;2.50;2.30;;;;;;;32.38;64.75;100626.94;5059523;28;71237;-45
2022/09/11 11:54:03;;;;;;;2.47;2.08;;;;;;;32.48;64.79;100648.94;5060552;28;66582;-44
2022/09/11 11:56:58;;;;;;;2.25;2.05;;;;;;;32.85;64.66;100722.00;5057977;28;70086;-45
2022/09/11 11:59:46;;;;;;;2.22;2.03;;;;;;;32.79;64.92;100731.09;5064114;28;66008;-44
2022/09/11 12:02:26;;;;;;;2.97;2.30;;;;;;;32.78;64.74;100729.44;5077025;27;70609;-45
2022/09/11 12:05:10;;;;;;;2.40;2.20;;;;;;;32.83;64.74;100731.44;5070944;27;67362;-44
2022/09/11 12:07:46;;;;;;;2.60;1.95;;;;;;;32.81;64.81;100718.09;5070863;28;70894;-44
2022/09/11 12:10:28;;;;;;;2.67;2.47;;;;;;;32.21;64.78;100631.44;5070866;27;66205;-44
2022/09/11 12:13:15;;;;;;;2.63;2.13;;;;;;;31.96;64.74;100591.78;5075717;28;70673;-43
2022/09/11 12:16:09;;;;;;;2.10;1.90;;;;;;;32.55;65.45;100702.28;5070852;28;67254;-43
2022/09/11 12:19:06;;;;;;;2.22;2.03;;;;;;;32.67;65.14;100728.38;5075990;28;70666;-43